Afton, Minnesota
Current Conditions -  °F | °C
As of 3:11 PM on Wednesday 26 Nov 2014 (Local Time) from K21D Reporting Station
Overcast Overcast  
Wind Chill: 18°   Ceiling: 2200
Heat Index: 27°   Visibility: 10mi
Dew Point: 19°   Wind: 8mph
Humidity: 74%   Direction: 350°N
Pressure: 30.23"   Gusts: NA
Location:  44.9°N, 92.78°W
Report Text: K21D 262111Z AUTO 35007KT 10SM BKN022 OVC075 M03/M07 A3023 RMK AO2
Loading
Personal Weather Stations






























Interactive Weather Map New forecast layout! Learn more

10-Day Weather Forecast

Advertisements
Track Severe Weather on mobile